createdAt,value
2019-03-25T00:01:17.985Z,64.50
2019-03-25T00:03:47.818Z,64.70
2019-03-25T00:06:17.649Z,64.80
2019-03-25T00:08:47.269Z,64.90
2019-03-25T00:11:16.937Z,65.30
2019-03-25T00:13:46.593Z,65.10
2019-03-25T00:16:16.192Z,65.20
2019-03-25T00:18:45.842Z,65.30
2019-03-25T00:21:15.396Z,65.50
2019-03-25T00:23:44.972Z,65.40
2019-03-25T00:26:14.566Z,65.40
2019-03-25T00:28:44.156Z,65.40
2019-03-25T00:31:14.116Z,65.70
2019-03-25T00:33:43.826Z,65.80
2019-03-25T00:36:13.512Z,65.90
2019-03-25T00:38:43.574Z,66.00
2019-03-25T00:41:13.507Z,65.70
2019-03-25T00:43:43.266Z,65.80
2019-03-25T00:46:13.064Z,65.70
2019-03-25T00:48:42.740Z,65.80
2019-03-25T00:51:12.262Z,65.60
2019-03-25T00:53:41.714Z,65.30
2019-03-25T00:56:11.218Z,65.20
2019-03-25T00:58:40.911Z,65.20
2019-03-25T01:01:10.501Z,65.00
2019-03-25T01:03:40.063Z,64.80
2019-03-25T01:06:10.194Z,64.80
2019-03-25T01:08:39.818Z,65.10
2019-03-25T01:11:09.408Z,64.90
2019-03-25T01:13:39.068Z,65.10
2019-03-25T01:16:08.605Z,65.20
2019-03-25T01:18:38.126Z,65.10
2019-03-25T01:21:07.716Z,65.30
2019-03-25T01:23:37.326Z,65.40
2019-03-25T01:26:06.822Z,65.30
2019-03-25T01:28:36.286Z,65.30
2019-03-25T01:31:05.865Z,65.30
2019-03-25T01:33:35.679Z,65.20
2019-03-25T01:36:05.354Z,65.40
2019-03-25T01:38:35.042Z,65.60
2019-03-25T01:41:04.540Z,65.80
2019-03-25T01:43:34.057Z,65.60
2019-03-25T01:46:03.517Z,65.70
2019-03-25T01:48:33.064Z,65.60
2019-03-25T01:51:02.472Z,65.80
2019-03-25T01:53:31.988Z,66.00
2019-03-25T01:56:01.435Z,66.00
2019-03-25T01:58:31.118Z,66.00
2019-03-25T02:01:01.322Z,66.00
2019-03-25T02:03:30.881Z,66.10
2019-03-25T02:06:00.366Z,66.10
2019-03-25T02:08:30.040Z,66.10
2019-03-25T02:10:59.654Z,66.10
2019-03-25T02:13:29.126Z,66.10
2019-03-25T02:15:58.578Z,66.30
2019-03-25T02:18:28.181Z,66.30
2019-03-25T02:20:57.927Z,66.10
2019-03-25T02:23:27.363Z,66.40
2019-03-25T02:25:56.968Z,66.30
2019-03-25T02:28:26.466Z,66.50
2019-03-25T02:30:56.118Z,66.50
2019-03-25T02:33:25.681Z,66.70
2019-03-25T02:35:55.321Z,66.80
2019-03-25T02:38:25.005Z,66.80
2019-03-25T02:40:54.417Z,66.80
2019-03-25T02:43:23.889Z,66.70
2019-03-25T02:45:53.356Z,66.90
2019-03-25T02:48:22.822Z,66.80
2019-03-25T02:50:52.403Z,66.90
2019-03-25T02:53:21.973Z,66.70
2019-03-25T02:55:51.569Z,66.30
2019-03-25T02:58:21.131Z,66.30
2019-03-25T03:00:50.689Z,66.30
2019-03-25T03:03:20.216Z,66.20
2019-03-25T03:05:49.772Z,66.10
2019-03-25T03:08:19.241Z,66.10
2019-03-25T03:10:49.255Z,66.10
2019-03-25T03:13:18.798Z,66.10
2019-03-25T03:15:48.385Z,66.10
2019-03-25T03:18:17.990Z,65.90
2019-03-25T03:20:47.538Z,65.80
2019-03-25T03:23:18.432Z,65.90
2019-03-25T03:25:56.986Z,65.90
2019-03-25T03:28:19.700Z,65.80
2019-03-25T03:30:49.784Z,65.80
2019-03-25T03:33:19.574Z,65.70
2019-03-25T03:35:49.213Z,65.60
2019-03-25T03:38:18.633Z,65.70
2019-03-25T03:40:48.237Z,65.70
2019-03-25T03:43:17.783Z,65.40
2019-03-25T03:45:47.619Z,65.40
2019-03-25T03:48:17.074Z,65.50
2019-03-25T03:50:46.546Z,65.50
2019-03-25T03:53:17.334Z,65.60
2019-03-25T03:55:47.767Z,65.60
2019-03-25T03:58:17.504Z,65.80
2019-03-25T04:00:47.009Z,65.90
2019-03-25T04:03:16.518Z,65.90
2019-03-25T04:05:46.570Z,65.70
2019-03-25T04:08:16.012Z,65.70
2019-03-25T04:10:45.568Z,65.70
2019-03-25T04:13:14.969Z,65.90
2019-03-25T04:15:44.544Z,66.10
2019-03-25T04:18:14.422Z,66.20
2019-03-25T04:20:43.980Z,66.30
2019-03-25T04:23:13.432Z,66.30
2019-03-25T04:25:43.830Z,66.40
2019-03-25T04:28:13.623Z,66.50
2019-03-25T04:30:43.077Z,66.60
2019-03-25T04:33:12.632Z,66.50
2019-03-25T04:35:42.239Z,66.50
2019-03-25T04:38:11.660Z,66.60
2019-03-25T04:40:41.501Z,66.50
2019-03-25T04:43:11.064Z,66.50
2019-03-25T04:45:40.904Z,66.40
2019-03-25T04:48:10.504Z,66.00
2019-03-25T04:50:40.008Z,66.40
2019-03-25T04:53:10.156Z,66.40
2019-03-25T04:55:39.869Z,66.10
2019-03-25T04:58:09.451Z,65.70
2019-03-25T05:00:39.183Z,65.20
2019-03-25T05:03:08.706Z,65.20
2019-03-25T05:05:38.276Z,65.20
2019-03-25T05:08:07.968Z,65.20
2019-03-25T05:10:37.675Z,65.10
2019-03-25T05:13:07.270Z,65.80
2019-03-25T05:15:37.209Z,65.10
2019-03-25T05:18:06.861Z,65.40
2019-03-25T05:20:36.870Z,65.40
2019-03-25T05:23:06.759Z,65.10
2019-03-25T05:25:36.597Z,65.20
2019-03-25T05:28:06.354Z,65.30
2019-03-25T05:30:35.975Z,65.30
2019-03-25T05:33:05.517Z,65.30
2019-03-25T05:35:35.129Z,65.40
2019-03-25T05:38:04.881Z,65.60
2019-03-25T05:40:34.732Z,66.00
2019-03-25T05:43:04.643Z,66.50
2019-03-25T05:45:34.375Z,67.40
2019-03-25T05:48:04.371Z,68.50
2019-03-25T05:50:34.125Z,71.20
2019-03-25T05:53:03.755Z,72.60
2019-03-25T05:55:33.636Z,74.70
2019-03-25T05:58:03.334Z,76.30
2019-03-25T06:00:35.307Z,78.50
2019-03-25T06:03:04.967Z,81.00
2019-03-25T06:05:40.613Z,82.10
2019-03-25T06:08:11.906Z,82.80
2019-03-25T06:10:43.416Z,83.20
2019-03-25T06:13:13.471Z,84.10
2019-03-25T06:15:43.485Z,85.10
2019-03-25T06:18:13.167Z,85.80
2019-03-25T06:20:42.811Z,89.10
2019-03-25T06:23:12.564Z,90.80
2019-03-25T06:25:42.036Z,91.90
2019-03-25T06:28:11.741Z,92.30
2019-03-25T06:30:41.328Z,92.60
2019-03-25T06:33:12.559Z,93.70
2019-03-25T06:35:45.263Z,94.40
2019-03-25T06:38:15.057Z,94.20
2019-03-25T06:40:44.974Z,95.00
2019-03-25T06:43:14.583Z,94.70
2019-03-25T06:45:44.281Z,95.00
2019-03-25T06:48:14.081Z,94.90
2019-03-25T06:50:43.699Z,94.80
2019-03-25T06:53:13.199Z,94.80
2019-03-25T06:55:42.911Z,94.30
2019-03-25T06:58:12.410Z,94.50
2019-03-25T07:00:42.398Z,94.70
2019-03-25T07:03:11.976Z,95.40
2019-03-25T07:05:41.592Z,94.70
2019-03-25T07:08:13.004Z,94.70
2019-03-25T07:10:42.863Z,95.10
2019-03-25T07:13:12.554Z,95.00
2019-03-25T07:15:44.089Z,95.30
2019-03-25T07:18:13.506Z,95.30
2019-03-25T07:20:43.127Z,95.90
2019-03-25T07:23:12.785Z,96.00
2019-03-25T07:25:42.843Z,96.30
2019-03-25T07:28:12.803Z,96.60
2019-03-25T07:30:42.540Z,97.50
2019-03-25T07:33:13.436Z,98.40
2019-03-25T07:35:45.277Z,99.50
2019-03-25T07:38:15.344Z,99.90
2019-03-25T07:40:45.446Z,99.90
2019-03-25T07:43:15.196Z,99.90
2019-03-25T07:45:44.894Z,99.90
2019-03-25T07:48:14.483Z,99.90
2019-03-25T07:50:44.228Z,99.90
2019-03-25T07:53:13.924Z,99.90
2019-03-25T07:55:43.591Z,99.90
2019-03-25T07:58:13.486Z,99.90
2019-03-25T08:00:43.500Z,99.90
2019-03-25T08:03:15.004Z,99.90
2019-03-25T08:05:44.636Z,99.90
2019-03-25T08:08:14.317Z,99.90
2019-03-25T08:10:43.982Z,99.90
2019-03-25T08:13:24.961Z,99.90
2019-03-25T08:15:54.793Z,99.90
2019-03-25T08:18:24.374Z,99.90
2019-03-25T08:20:53.880Z,99.90
2019-03-25T08:23:23.696Z,99.90
2019-03-25T08:25:53.431Z,99.90
2019-03-25T08:28:23.107Z,99.90
2019-03-25T08:30:52.816Z,99.90
2019-03-25T08:33:22.605Z,99.90
2019-03-25T08:35:52.150Z,99.90
2019-03-25T08:38:22.334Z,99.90
2019-03-25T08:40:52.178Z,99.90
2019-03-25T08:43:21.760Z,99.90
2019-03-25T08:45:51.373Z,99.90
2019-03-25T08:48:20.924Z,99.90
2019-03-25T08:50:50.914Z,99.90
2019-03-25T08:53:20.968Z,99.90
2019-03-25T08:55:50.732Z,99.90
2019-03-25T08:58:20.736Z,99.90
2019-03-25T09:00:50.308Z,99.90
2019-03-25T09:03:19.855Z,99.90
2019-03-25T09:05:49.827Z,99.90
2019-03-25T09:08:20.416Z,99.90
2019-03-25T09:10:50.065Z,99.90
2019-03-25T09:13:19.712Z,99.90
2019-03-25T09:15:49.474Z,99.90
2019-03-25T09:18:19.222Z,99.90
2019-03-25T09:20:48.808Z,99.90
2019-03-25T09:23:18.485Z,99.90
2019-03-25T09:25:48.274Z,99.90
2019-03-25T09:28:24.308Z,99.90
2019-03-25T09:31:18.574Z,99.90
2019-03-25T09:33:49.089Z,99.90
2019-03-25T09:36:20.477Z,99.90
2019-03-25T09:38:50.162Z,99.90
2019-03-25T09:41:20.540Z,99.90
2019-03-25T09:43:50.293Z,99.90
2019-03-25T09:46:20.118Z,99.90
2019-03-25T09:48:49.900Z,99.90
2019-03-25T09:51:19.623Z,99.70
2019-03-25T09:54:02.336Z,99.20
2019-03-25T09:56:31.882Z,99.70
2019-03-25T09:59:01.566Z,99.90
2019-03-25T10:01:32.140Z,99.90
2019-03-25T10:04:01.887Z,99.90
2019-03-25T10:06:31.955Z,99.90
2019-03-25T10:09:01.773Z,99.30
2019-03-25T10:11:31.562Z,99.20
2019-03-25T10:14:01.863Z,99.10
2019-03-25T10:16:31.540Z,98.80
2019-03-25T10:19:01.389Z,98.70
2019-03-25T10:21:31.048Z,99.80
2019-03-25T10:24:01.314Z,99.90
2019-03-25T10:26:30.891Z,99.90
2019-03-25T10:29:00.973Z,99.90
2019-03-25T10:31:31.047Z,99.90
2019-03-25T10:34:01.034Z,99.90
2019-03-25T10:36:31.810Z,99.90
2019-03-25T10:39:08.089Z,99.90
2019-03-25T10:41:38.603Z,99.90
2019-03-25T10:44:08.608Z,99.90
2019-03-25T10:46:40.584Z,99.90
2019-03-25T10:49:10.302Z,99.90
2019-03-25T10:51:40.094Z,99.90
2019-03-25T10:54:09.769Z,99.90
2019-03-25T10:56:41.875Z,99.90
2019-03-25T10:59:11.316Z,99.90
2019-03-25T11:01:41.293Z,99.60
2019-03-25T11:04:13.547Z,99.90
2019-03-25T11:06:43.314Z,99.90
2019-03-25T11:09:13.129Z,99.90
2019-03-25T11:11:43.086Z,99.90
2019-03-25T11:14:15.102Z,99.90
2019-03-25T11:16:45.026Z,99.90
2019-03-25T11:19:14.839Z,99.90
2019-03-25T11:21:44.587Z,99.90
2019-03-25T11:24:15.237Z,99.90
2019-03-25T11:26:45.364Z,99.90
2019-03-25T11:29:15.104Z,99.90
2019-03-25T11:31:46.076Z,99.90
2019-03-25T11:34:15.767Z,99.10
2019-03-25T11:36:45.663Z,99.70
2019-03-25T11:39:16.091Z,99.90
2019-03-25T11:41:45.907Z,99.80
2019-03-25T11:44:15.650Z,99.90
2019-03-25T11:46:45.670Z,99.90
2019-03-25T11:49:15.381Z,99.80
2019-03-25T11:51:45.867Z,98.40
2019-03-25T11:54:15.614Z,98.70
2019-03-25T11:56:45.192Z,98.50
2019-03-25T11:59:18.926Z,97.70
2019-03-25T12:01:46.193Z,97.30
2019-03-25T12:04:17.322Z,96.10
2019-03-25T12:06:49.842Z,96.40
2019-03-25T12:09:19.779Z,95.40
2019-03-25T12:11:49.526Z,93.80
2019-03-25T12:14:19.204Z,93.30
2019-03-25T12:16:49.034Z,94.20
2019-03-25T12:19:18.643Z,95.30
2019-03-25T12:21:48.495Z,95.40
2019-03-25T12:24:18.162Z,94.00
2019-03-25T12:26:47.935Z,93.30
2019-03-25T12:29:29.326Z,93.00
2019-03-25T12:31:50.315Z,91.70
2019-03-25T12:34:20.724Z,91.80
2019-03-25T12:36:50.364Z,91.20
2019-03-25T12:39:20.033Z,91.90
2019-03-25T12:41:49.813Z,90.60
2019-03-25T12:44:20.685Z,91.50
2019-03-25T12:46:50.458Z,91.20
2019-03-25T12:49:20.289Z,91.50
2019-03-25T12:51:50.401Z,91.10
2019-03-25T12:54:20.041Z,91.00
2019-03-25T12:56:49.643Z,89.80
2019-03-25T12:59:19.367Z,88.60
2019-03-25T13:01:53.276Z,89.30
2019-03-25T13:04:20.253Z,92.20
2019-03-25T13:06:49.931Z,92.70
2019-03-25T13:09:19.793Z,93.30
2019-03-25T13:11:49.461Z,93.50
2019-03-25T13:14:20.727Z,94.00
2019-03-25T13:16:50.496Z,94.80
2019-03-25T13:19:20.111Z,95.30
2019-03-25T13:21:49.902Z,94.80
2019-03-25T13:24:49.001Z,93.90
2019-03-25T13:27:29.666Z,92.30
2019-03-25T13:30:02.383Z,90.20
2019-03-25T13:32:32.280Z,86.60
2019-03-25T13:35:02.204Z,86.50
2019-03-25T13:37:35.158Z,86.10
2019-03-25T13:40:07.882Z,81.90
2019-03-25T13:42:48.159Z,83.10
2019-03-25T13:46:11.907Z,85.00
2019-03-25T13:50:02.701Z,87.30
2019-03-25T13:52:35.233Z,87.40
2019-03-25T13:55:09.393Z,90.00
2019-03-25T13:57:53.947Z,91.00
2019-03-25T14:01:17.899Z,91.30
2019-03-25T14:03:54.601Z,92.90
2019-03-25T14:06:34.343Z,95.90
2019-03-25T14:09:10.069Z,96.80
2019-03-25T14:11:58.882Z,98.00
2019-03-25T14:15:11.713Z,99.10
2019-03-25T14:17:36.140Z,99.80
2019-03-25T14:20:37.561Z,99.90
2019-03-25T14:23:02.714Z,99.50
2019-03-25T14:25:36.111Z,99.80
2019-03-25T14:28:14.069Z,99.60
2019-03-25T14:30:52.296Z,99.50
2019-03-25T14:33:25.304Z,99.70
2019-03-25T14:35:59.786Z,99.10
2019-03-25T14:38:29.604Z,99.40
2019-03-25T14:41:07.201Z,99.30
2019-03-25T14:47:50.336Z,99.10
2019-03-25T14:50:19.776Z,98.70
2019-03-25T14:52:56.203Z,98.50
2019-03-25T14:55:35.001Z,98.50
2019-03-25T14:58:05.006Z,98.80
2019-03-25T15:00:34.689Z,98.70
2019-03-25T15:03:08.438Z,99.30
2019-03-25T15:05:48.674Z,98.40
2019-03-25T15:08:19.294Z,97.70
2019-03-25T15:10:53.479Z,97.00
2019-03-25T15:13:20.480Z,96.60
2019-03-25T15:15:50.316Z,96.30
2019-03-25T15:18:20.108Z,95.40
2019-03-25T15:20:51.139Z,94.60
2019-03-25T15:23:21.294Z,94.40
2019-03-25T15:25:51.531Z,94.50
2019-03-25T15:28:21.469Z,93.90
2019-03-25T15:30:51.325Z,92.30
2019-03-25T15:33:21.298Z,91.90
2019-03-25T15:35:51.196Z,92.00
2019-03-25T15:38:21.163Z,91.30
2019-03-25T15:40:50.891Z,90.60
2019-03-25T15:43:20.922Z,90.00
2019-03-25T15:45:52.108Z,89.90
2019-03-25T15:48:22.412Z,90.10
2019-03-25T15:50:52.455Z,90.20
2019-03-25T15:53:22.173Z,90.80
2019-03-25T15:55:51.942Z,90.70
2019-03-25T15:58:25.899Z,91.00
2019-03-25T16:00:53.306Z,91.30
2019-03-25T16:03:23.337Z,91.50
2019-03-25T16:05:52.985Z,91.50
2019-03-25T16:08:22.776Z,91.60
2019-03-25T16:10:55.483Z,91.90
2019-03-25T16:13:25.311Z,91.80
2019-03-25T16:15:55.344Z,92.00
2019-03-25T16:18:37.015Z,92.20
2019-03-25T16:21:07.104Z,92.60
2019-03-25T16:23:36.920Z,92.80
2019-03-25T16:26:06.784Z,93.00
2019-03-25T16:28:36.563Z,93.00
2019-03-25T16:31:07.382Z,93.30
2019-03-25T16:33:37.166Z,93.30
2019-03-25T16:36:06.999Z,93.30
2019-03-25T16:38:36.974Z,93.50
2019-03-25T16:41:06.669Z,93.40
2019-03-25T16:43:36.416Z,93.50
2019-03-25T16:46:06.158Z,93.60
2019-03-25T16:48:36.060Z,94.20
2019-03-25T16:51:05.910Z,94.30
2019-03-25T16:53:37.470Z,94.30
2019-03-25T16:56:10.798Z,94.20
2019-03-25T16:58:41.108Z,93.90
2019-03-25T17:01:12.606Z,93.70
2019-03-25T17:03:45.316Z,93.50
2019-03-25T17:06:16.302Z,93.30
2019-03-25T17:08:45.921Z,93.20
2019-03-25T17:11:15.551Z,92.90
2019-03-25T17:13:45.467Z,92.90
2019-03-25T17:16:15.445Z,93.20
2019-03-25T17:18:45.176Z,93.20
2019-03-25T17:21:14.869Z,93.10
2019-03-25T17:23:44.975Z,92.90
2019-03-25T17:26:14.729Z,93.00
2019-03-25T17:28:44.477Z,93.20
2019-03-25T17:31:38.482Z,93.30
2019-03-25T17:34:09.477Z,93.30
2019-03-25T17:36:39.687Z,93.00
2019-03-25T17:39:10.209Z,93.20
2019-03-25T17:41:40.512Z,93.30
2019-03-25T17:44:10.230Z,93.30
2019-03-25T17:46:40.347Z,93.60
2019-03-25T17:49:10.341Z,92.80
2019-03-25T17:51:40.133Z,92.40
2019-03-25T17:54:09.681Z,92.30
2019-03-25T17:56:39.446Z,92.30
2019-03-25T17:59:09.431Z,92.00
2019-03-25T18:01:39.576Z,91.30
2019-03-25T18:04:09.394Z,91.20
2019-03-25T18:06:39.283Z,90.90
2019-03-25T18:09:10.651Z,90.90
2019-03-25T18:11:40.473Z,91.10
2019-03-25T18:14:10.088Z,91.10
2019-03-25T18:16:39.662Z,91.00
2019-03-25T18:19:09.595Z,91.10
2019-03-25T18:21:39.262Z,90.90
2019-03-25T18:24:09.197Z,91.00
2019-03-25T18:26:41.667Z,90.80
2019-03-25T18:29:12.177Z,90.70
2019-03-25T18:31:43.682Z,90.70
2019-03-25T18:34:13.352Z,90.40
2019-03-25T18:36:44.237Z,90.50
2019-03-25T18:39:22.389Z,90.50
2019-03-25T18:41:52.711Z,90.40
2019-03-25T18:44:22.627Z,90.40
2019-03-25T18:46:52.727Z,90.40
2019-03-25T18:49:23.646Z,90.40
2019-03-25T18:51:57.126Z,90.40
2019-03-25T18:54:29.932Z,90.10
2019-03-25T18:57:01.272Z,90.20
2019-03-25T18:59:30.879Z,90.30
2019-03-25T19:02:01.447Z,90.30
2019-03-25T19:04:31.464Z,90.20
2019-03-25T19:07:01.512Z,90.10
2019-03-25T19:09:31.479Z,90.00
2019-03-25T19:12:01.387Z,90.30
2019-03-25T19:14:34.973Z,90.10
2019-03-25T19:17:05.493Z,90.20
2019-03-25T19:19:35.229Z,90.40
2019-03-25T19:22:05.599Z,90.20
2019-03-25T19:24:35.516Z,90.00
2019-03-25T19:27:08.026Z,89.60
2019-03-25T19:29:37.879Z,90.50
2019-03-25T19:32:07.592Z,90.00
2019-03-25T19:34:37.514Z,89.90
2019-03-25T19:37:07.455Z,90.10
2019-03-25T19:39:37.082Z,90.00
2019-03-25T19:42:07.053Z,90.30
2019-03-25T19:44:36.782Z,90.40
2019-03-25T19:47:06.738Z,90.60
2019-03-25T19:49:36.600Z,90.60
2019-03-25T19:52:06.310Z,90.50
2019-03-25T19:54:35.883Z,90.70
2019-03-25T19:57:05.724Z,90.90
2019-03-25T19:59:35.461Z,90.60
2019-03-25T20:02:22.670Z,90.60
2019-03-25T20:04:52.600Z,91.00
2019-03-25T20:07:23.174Z,91.00
2019-03-25T20:09:52.974Z,90.90
2019-03-25T20:12:25.022Z,90.90
2019-03-25T20:14:55.142Z,90.90
2019-03-25T20:17:26.254Z,91.10
2019-03-25T20:19:56.445Z,91.20
2019-03-25T20:22:26.393Z,91.40
2019-03-25T20:24:56.398Z,91.40
2019-03-25T20:27:26.288Z,91.50
2019-03-25T20:29:56.165Z,91.80
2019-03-25T20:32:31.697Z,92.00
2019-03-25T20:34:57.896Z,92.20
2019-03-25T20:37:28.496Z,92.10
2019-03-25T20:39:58.353Z,92.60
2019-03-25T20:42:28.024Z,92.40
2019-03-25T20:44:57.812Z,92.40
2019-03-25T20:47:27.432Z,92.60
2019-03-25T20:49:57.163Z,92.80
2019-03-25T20:52:26.910Z,92.90
2019-03-25T20:54:56.521Z,93.10
2019-03-25T20:57:28.532Z,93.30
2019-03-25T20:59:58.283Z,93.50
2019-03-25T21:02:28.030Z,93.60
2019-03-25T21:04:58.113Z,93.80
2019-03-25T21:07:27.816Z,94.00
2019-03-25T21:09:57.597Z,94.00
2019-03-25T21:12:28.089Z,94.00
2019-03-25T21:14:57.917Z,94.30
2019-03-25T21:17:27.733Z,94.40
2019-03-25T21:19:57.610Z,94.40
2019-03-25T21:22:27.261Z,94.60
2019-03-25T21:25:00.984Z,94.70
2019-03-25T21:27:31.025Z,95.00
2019-03-25T21:30:02.941Z,95.10
2019-03-25T21:32:33.091Z,95.30
2019-03-25T21:35:02.816Z,95.50
2019-03-25T21:37:32.636Z,95.60
2019-03-25T21:40:02.353Z,95.80
2019-03-25T21:42:31.953Z,96.10
2019-03-25T21:45:01.702Z,96.30
2019-03-25T21:47:31.575Z,96.50
2019-03-25T21:50:01.319Z,96.60
2019-03-25T21:52:33.530Z,96.90
2019-03-25T21:55:03.121Z,96.70
2019-03-25T21:57:33.220Z,96.70
2019-03-25T22:00:03.589Z,96.70
2019-03-25T22:02:33.982Z,96.70
2019-03-25T22:05:03.708Z,96.70
2019-03-25T22:07:33.429Z,96.70
2019-03-25T22:10:03.247Z,96.90
2019-03-25T22:12:32.878Z,97.20
2019-03-25T22:15:02.618Z,97.40
2019-03-25T22:17:32.270Z,97.40
2019-03-25T22:20:02.086Z,97.50
2019-03-25T22:22:34.185Z,97.50
2019-03-25T22:25:03.891Z,97.60
2019-03-25T22:27:34.280Z,97.80
2019-03-25T22:30:04.436Z,98.00
2019-03-25T22:32:35.595Z,98.10
2019-03-25T22:35:05.539Z,98.30
2019-03-25T22:37:35.527Z,98.50
2019-03-25T22:40:06.878Z,98.70
2019-03-25T22:42:38.951Z,98.90
2019-03-25T22:45:09.618Z,99.00
2019-03-25T22:47:40.010Z,99.00
2019-03-25T22:50:16.236Z,99.30
2019-03-25T22:52:45.926Z,99.40
2019-03-25T22:55:15.789Z,99.40
2019-03-25T22:57:45.558Z,99.40
2019-03-25T23:00:18.650Z,99.40
2019-03-25T23:02:48.390Z,99.80
2019-03-25T23:05:18.257Z,99.40
2019-03-25T23:07:47.870Z,99.30
2019-03-25T23:10:17.983Z,99.30
2019-03-25T23:12:48.207Z,99.40
2019-03-25T23:15:18.025Z,99.90
2019-03-25T23:17:47.693Z,99.90
2019-03-25T23:20:18.584Z,99.90
2019-03-25T23:22:48.188Z,99.90
2019-03-25T23:25:17.752Z,99.90
2019-03-25T23:27:47.317Z,99.90
2019-03-25T23:30:17.079Z,99.90
2019-03-25T23:32:47.768Z,99.90
2019-03-25T23:35:18.055Z,99.90
2019-03-25T23:37:47.734Z,99.90
2019-03-25T23:40:17.235Z,99.90
2019-03-25T23:42:46.864Z,99.90
2019-03-25T23:45:16.542Z,99.90
2019-03-25T23:47:46.311Z,99.90
2019-03-25T23:50:16.104Z,99.90
2019-03-25T23:52:45.910Z,99.90
2019-03-25T23:55:15.457Z,99.90
2019-03-25T23:57:45.142Z,99.90
